createdAt,value
2023-04-15T00:01:19.268Z,12.29
2023-04-15T00:03:47.448Z,12.29
2023-04-15T00:06:14.556Z,11.85
2023-04-15T00:08:41.857Z,11.80
2023-04-15T00:11:08.436Z,11.89
2023-04-15T00:13:35.079Z,11.82
2023-04-15T00:16:02.201Z,12.11
2023-04-15T00:18:32.125Z,11.75
2023-04-15T00:20:59.377Z,12.36
2023-04-15T00:23:26.699Z,12.65
2023-04-15T00:25:53.279Z,12.45
2023-04-15T00:28:19.995Z,12.37
2023-04-15T00:30:47.238Z,12.80
2023-04-15T00:33:14.539Z,12.62
2023-04-15T00:35:41.477Z,12.32
2023-04-15T00:38:08.313Z,12.43
2023-04-15T00:40:35.525Z,12.62
2023-04-15T00:43:02.579Z,12.41
2023-04-15T00:45:29.473Z,12.45
2023-04-15T00:47:56.713Z,12.91
2023-04-15T00:50:23.430Z,12.76
2023-04-15T00:52:50.032Z,12.70
2023-04-15T00:55:16.797Z,12.44
2023-04-15T00:57:44.596Z,11.69
2023-04-15T01:00:12.145Z,11.61
2023-04-15T01:02:39.496Z,11.12
2023-04-15T01:05:07.614Z,11.68
2023-04-15T01:07:34.318Z,11.87
2023-04-15T01:10:01.134Z,12.13
2023-04-15T01:12:28.196Z,11.77
2023-04-15T01:14:56.208Z,11.74
2023-04-15T01:17:24.515Z,11.62
2023-04-15T01:19:52.336Z,11.92
2023-04-15T01:22:19.737Z,11.61
2023-04-15T01:25:06.219Z,12.32
2023-04-15T01:27:35.387Z,12.28
2023-04-15T01:30:05.261Z,12.72
2023-04-15T01:32:31.959Z,12.47
2023-04-15T01:34:58.613Z,12.63
2023-04-15T01:37:26.085Z,12.81
2023-04-15T01:39:52.694Z,13.27
2023-04-15T01:42:19.334Z,13.29
2023-04-15T01:44:46.300Z,13.29
2023-04-15T01:47:14.198Z,12.46
2023-04-15T01:49:41.020Z,13.10
2023-04-15T01:52:08.290Z,13.22
2023-04-15T01:54:35.643Z,13.20
2023-04-15T01:57:02.408Z,13.02
2023-04-15T01:59:29.089Z,12.91
2023-04-15T02:01:56.177Z,13.09
2023-04-15T02:04:22.883Z,13.26
2023-04-15T02:06:49.456Z,13.10
2023-04-15T02:09:16.097Z,13.44
2023-04-15T02:11:42.900Z,12.98
2023-04-15T02:14:09.526Z,12.76
2023-04-15T02:16:36.614Z,13.10
2023-04-15T02:19:03.845Z,12.72
2023-04-15T02:21:30.693Z,13.03
2023-04-15T02:23:57.566Z,13.29
2023-04-15T02:26:25.317Z,13.50
2023-04-15T02:28:51.900Z,12.68
2023-04-15T02:31:18.602Z,12.52
2023-04-15T02:33:45.540Z,12.94
2023-04-15T02:36:12.508Z,12.94
2023-04-15T02:38:41.293Z,12.37
2023-04-15T02:41:08.585Z,12.39
2023-04-15T02:43:35.530Z,12.84
2023-04-15T02:46:02.403Z,12.67
2023-04-15T02:48:29.180Z,12.34
2023-04-15T02:51:11.766Z,11.61
2023-04-15T02:53:38.342Z,11.47
2023-04-15T02:56:06.161Z,10.67
2023-04-15T02:58:32.768Z,11.78
2023-04-15T03:00:59.378Z,12.30
2023-04-15T03:03:28.151Z,11.98
2023-04-15T03:05:54.837Z,12.51
2023-04-15T03:08:21.404Z,12.09
2023-04-15T03:10:49.303Z,12.23
2023-04-15T03:13:15.929Z,12.17
2023-04-15T03:15:42.523Z,12.14
2023-04-15T03:18:09.163Z,12.50
2023-04-15T03:20:36.513Z,11.85
2023-04-15T03:23:03.238Z,11.48
2023-04-15T03:25:29.824Z,12.32
2023-04-15T03:27:56.814Z,12.87
2023-04-15T03:30:23.436Z,12.93
2023-04-15T03:32:50.019Z,12.51
2023-04-15T03:35:17.119Z,13.15
2023-04-15T03:37:43.781Z,12.27
2023-04-15T03:40:10.851Z,13.21
2023-04-15T03:42:37.442Z,12.25
2023-04-15T03:45:04.368Z,11.37
2023-04-15T03:47:31.071Z,12.26
2023-04-15T03:49:57.690Z,11.74
2023-04-15T03:52:24.339Z,10.62
2023-04-15T03:54:51.462Z,11.43
2023-04-15T03:57:18.049Z,12.14
2023-04-15T03:59:44.631Z,12.25
2023-04-15T04:02:11.686Z,12.27
2023-04-15T04:04:38.441Z,11.40
2023-04-15T04:07:05.158Z,12.13
2023-04-15T04:09:31.761Z,11.62
2023-04-15T04:11:58.578Z,11.51
2023-04-15T04:14:29.489Z,10.72
2023-04-15T04:16:57.407Z,11.53
2023-04-15T04:19:24.021Z,12.26
2023-04-15T04:21:51.091Z,12.04
2023-04-15T04:24:17.762Z,11.69
2023-04-15T04:26:44.429Z,12.33
2023-04-15T04:29:11.079Z,11.82
2023-04-15T04:31:37.733Z,11.57
2023-04-15T04:34:04.307Z,11.73
2023-04-15T04:36:30.879Z,11.70
2023-04-15T04:38:57.626Z,12.17
2023-04-15T04:41:24.261Z,12.02
2023-04-15T04:43:50.912Z,12.16
2023-04-15T04:46:17.564Z,11.80
2023-04-15T04:48:46.624Z,11.11
2023-04-15T04:51:13.842Z,12.45
2023-04-15T04:53:40.723Z,13.02
2023-04-15T04:56:07.438Z,13.28
2023-04-15T04:58:34.100Z,12.77
2023-04-15T05:01:00.908Z,13.07
2023-04-15T05:03:27.702Z,12.96
2023-04-15T05:05:54.748Z,13.15
2023-04-15T05:08:21.467Z,13.46
2023-04-15T05:10:48.338Z,13.15
2023-04-15T05:13:14.902Z,12.98
2023-04-15T05:15:43.278Z,11.68
2023-04-15T05:18:09.885Z,11.92
2023-04-15T05:20:36.693Z,11.93
2023-04-15T05:23:03.282Z,12.06
2023-04-15T05:25:29.926Z,13.13
2023-04-15T05:27:56.556Z,13.61
2023-04-15T05:30:23.156Z,14.12
2023-04-15T05:32:50.192Z,14.27
2023-04-15T05:35:17.531Z,14.21
2023-04-15T05:37:44.128Z,13.22
2023-04-15T05:40:11.067Z,13.08
2023-04-15T05:42:37.700Z,13.39
2023-04-15T05:45:09.004Z,13.28
2023-04-15T05:47:37.455Z,12.89
2023-04-15T05:50:04.861Z,13.09
2023-04-15T05:52:31.782Z,13.15
2023-04-15T05:54:58.889Z,13.79
2023-04-15T05:57:25.678Z,13.41
2023-04-15T05:59:52.833Z,13.29
2023-04-15T06:02:19.719Z,14.05
2023-04-15T06:04:46.475Z,14.54
2023-04-15T06:07:13.043Z,14.32
2023-04-15T06:09:39.703Z,14.85
2023-04-15T06:12:06.902Z,14.05
2023-04-15T06:14:33.481Z,14.79
2023-04-15T06:17:00.145Z,15.36
2023-04-15T06:19:26.702Z,14.68
2023-04-15T06:21:53.986Z,15.35
2023-04-15T06:24:20.824Z,15.55
2023-04-15T06:26:47.469Z,15.96
2023-04-15T06:29:14.316Z,15.36
2023-04-15T06:31:41.862Z,16.59
2023-04-15T06:34:08.539Z,18.25
2023-04-15T06:36:35.155Z,19.49
2023-04-15T06:39:02.838Z,19.53
2023-04-15T06:41:29.777Z,18.75
2023-04-15T06:44:02.869Z,18.29
2023-04-15T06:46:29.498Z,17.07
2023-04-15T06:48:56.171Z,16.21
2023-04-15T06:51:26.117Z,16.20
2023-04-15T06:53:53.329Z,15.48
2023-04-15T06:56:19.998Z,16.68
2023-04-15T06:58:47.168Z,16.43
2023-04-15T07:01:14.373Z,16.05
2023-04-15T07:03:41.949Z,16.45
2023-04-15T07:06:09.528Z,16.16
2023-04-15T07:08:36.770Z,16.50
2023-04-15T07:11:03.371Z,16.70
2023-04-15T07:13:32.455Z,16.99
2023-04-15T07:15:59.871Z,17.34
2023-04-15T07:18:26.506Z,16.58
2023-04-15T07:20:53.097Z,16.55
2023-04-15T07:23:19.734Z,16.73
2023-04-15T07:25:46.299Z,15.91
2023-04-15T07:28:13.078Z,16.57
2023-04-15T07:30:39.757Z,16.32
2023-04-15T07:33:06.966Z,16.98
2023-04-15T07:35:33.597Z,16.25
2023-04-15T07:38:00.189Z,16.70
2023-04-15T07:40:28.200Z,18.13
2023-04-15T07:42:57.235Z,17.15
2023-04-15T07:45:24.147Z,17.27
2023-04-15T07:47:53.589Z,17.24
2023-04-15T07:50:20.206Z,15.43
2023-04-15T07:52:47.053Z,14.96
2023-04-15T07:55:13.739Z,15.01
2023-04-15T07:57:40.333Z,14.03
2023-04-15T08:00:07.956Z,12.98
2023-04-15T08:02:36.908Z,11.73
2023-04-15T08:05:05.268Z,11.07
2023-04-15T08:07:32.580Z,10.85
2023-04-15T08:09:59.175Z,10.83
2023-04-15T08:12:25.921Z,10.98
2023-04-15T08:14:52.572Z,10.60
2023-04-15T08:17:19.189Z,11.16
2023-04-15T08:19:46.054Z,10.70
2023-04-15T08:22:17.720Z,10.83
2023-04-15T08:24:45.802Z,9.81
2023-04-15T08:27:12.732Z,9.63
2023-04-15T08:29:40.663Z,9.33
2023-04-15T08:32:07.859Z,10.64
2023-04-15T08:34:35.027Z,9.21
2023-04-15T08:37:01.681Z,8.41
2023-04-15T08:39:28.365Z,8.16
2023-04-15T08:42:02.550Z,8.42
2023-04-15T08:44:32.081Z,8.09
2023-04-15T08:47:02.946Z,8.26
2023-04-15T08:49:30.488Z,8.07
2023-04-15T08:52:00.380Z,8.47
2023-04-15T08:54:28.567Z,8.03
2023-04-15T08:56:58.541Z,8.30
2023-04-15T08:59:25.771Z,8.11
2023-04-15T09:01:53.208Z,9.01
2023-04-15T09:04:19.935Z,8.98
2023-04-15T09:06:47.178Z,9.42
2023-04-15T09:09:14.610Z,8.97
2023-04-15T09:11:42.442Z,8.72
2023-04-15T09:14:09.073Z,8.01
2023-04-15T09:16:56.967Z,7.72
2023-04-15T09:19:25.063Z,7.63
2023-04-15T09:21:57.322Z,7.41
2023-04-15T09:24:27.131Z,7.41
2023-04-15T09:26:56.036Z,7.04
2023-04-15T09:29:26.769Z,7.00
2023-04-15T09:31:53.402Z,6.76
2023-04-15T09:34:21.220Z,6.93
2023-04-15T09:36:49.230Z,6.55
2023-04-15T09:39:17.186Z,6.98
2023-04-15T09:41:44.619Z,6.53
2023-04-15T09:44:27.287Z,7.06
2023-04-15T09:46:53.979Z,7.03
2023-04-15T09:49:21.032Z,7.11
2023-04-15T09:52:01.478Z,7.49
2023-04-15T09:54:36.440Z,7.27
2023-04-15T09:57:08.512Z,7.46
2023-04-15T09:59:35.602Z,6.20
2023-04-15T10:02:05.757Z,5.33
2023-04-15T10:04:36.684Z,5.65
2023-04-15T10:07:05.262Z,5.74
2023-04-15T10:09:33.652Z,8.06
2023-04-15T10:12:01.196Z,7.95
2023-04-15T10:14:32.314Z,7.48
2023-04-15T10:17:02.145Z,6.75
2023-04-15T10:19:33.185Z,5.80
2023-04-15T10:22:00.434Z,4.99
2023-04-15T10:24:28.485Z,5.15
2023-04-15T10:26:55.585Z,5.27
2023-04-15T10:29:26.750Z,5.49
2023-04-15T10:31:56.389Z,5.33
2023-04-15T10:34:27.467Z,5.31
2023-04-15T10:37:01.561Z,5.69
2023-04-15T10:39:34.171Z,6.14
2023-04-15T10:42:15.884Z,6.28
2023-04-15T10:44:49.716Z,6.05
2023-04-15T10:47:19.551Z,5.52
2023-04-15T10:49:52.440Z,5.34
2023-04-15T10:52:24.522Z,5.10
2023-04-15T10:55:03.584Z,5.18
2023-04-15T10:57:37.589Z,5.26
2023-04-15T11:00:12.911Z,5.44
2023-04-15T11:02:40.238Z,5.53
2023-04-15T11:05:07.649Z,5.17
2023-04-15T11:07:35.852Z,5.28
2023-04-15T11:10:03.220Z,5.09
2023-04-15T11:12:36.773Z,4.78
2023-04-15T11:15:32.834Z,4.67
2023-04-15T11:18:15.019Z,4.36
2023-04-15T11:20:47.391Z,4.25
2023-04-15T11:23:34.421Z,4.16
2023-04-15T11:26:05.487Z,4.13
2023-04-15T11:28:33.126Z,4.37
2023-04-15T11:31:11.325Z,4.34
2023-04-15T11:33:55.148Z,4.46
2023-04-15T11:36:27.102Z,4.83
2023-04-15T11:38:53.950Z,5.53
2023-04-15T11:41:22.367Z,5.10
2023-04-15T11:43:50.425Z,5.09
2023-04-15T11:46:17.813Z,4.76
2023-04-15T11:48:46.768Z,4.55
2023-04-15T11:51:14.477Z,4.80
2023-04-15T11:53:49.736Z,4.22
2023-04-15T11:56:21.039Z,4.49
2023-04-15T11:58:50.696Z,4.58
2023-04-15T12:01:17.689Z,4.17
2023-04-15T12:03:49.315Z,4.09
2023-04-15T12:06:24.447Z,4.58
2023-04-15T12:09:04.725Z,4.54
2023-04-15T12:11:34.503Z,4.59
2023-04-15T12:14:28.221Z,4.11
2023-04-15T12:17:04.811Z,4.13
2023-04-15T12:19:36.269Z,3.77
2023-04-15T12:22:15.253Z,3.35
2023-04-15T12:24:46.803Z,3.16
2023-04-15T12:27:15.144Z,3.02
2023-04-15T12:29:45.876Z,3.33
2023-04-15T12:32:16.917Z,3.63
2023-04-15T12:34:49.611Z,3.69
2023-04-15T12:37:16.928Z,3.46
2023-04-15T12:39:45.900Z,3.35
2023-04-15T12:42:14.570Z,3.63
2023-04-15T12:44:41.633Z,3.82
2023-04-15T12:47:09.900Z,3.75
2023-04-15T12:49:37.686Z,3.51
2023-04-15T12:52:04.682Z,3.30
2023-04-15T12:54:32.125Z,3.64
2023-04-15T12:56:59.917Z,3.58
2023-04-15T12:59:26.989Z,3.40
2023-04-15T13:01:54.589Z,3.02
2023-04-15T13:04:22.160Z,2.96
2023-04-15T13:06:49.465Z,2.63
2023-04-15T13:09:16.235Z,2.69
2023-04-15T13:11:43.079Z,3.01
2023-04-15T13:14:13.048Z,2.99
2023-04-15T13:16:40.068Z,3.30
2023-04-15T13:19:07.322Z,3.43
2023-04-15T13:21:35.783Z,3.45
2023-04-15T13:24:03.982Z,3.32
2023-04-15T13:26:31.667Z,3.25
2023-04-15T13:28:58.454Z,3.30
2023-04-15T13:31:25.121Z,3.29
2023-04-15T13:33:51.779Z,3.06
2023-04-15T13:36:18.461Z,3.00
2023-04-15T13:38:45.248Z,3.00
2023-04-15T13:41:11.911Z,3.23
2023-04-15T13:43:38.464Z,3.24
2023-04-15T13:46:05.444Z,3.01
2023-04-15T13:48:32.136Z,2.94
2023-04-15T13:50:58.694Z,2.84
2023-04-15T13:53:27.437Z,2.65
2023-04-15T13:56:09.280Z,2.34
2023-04-15T13:58:37.078Z,2.29
2023-04-15T14:01:06.274Z,2.42
2023-04-15T14:03:48.979Z,2.42
2023-04-15T14:06:15.765Z,2.20
2023-04-15T14:08:42.651Z,2.18
2023-04-15T14:11:09.721Z,2.14
2023-04-15T14:13:36.737Z,2.17
2023-04-15T14:16:03.773Z,2.27
2023-04-15T14:18:30.803Z,2.29
2023-04-15T14:20:57.427Z,2.54
2023-04-15T14:23:24.066Z,2.67
2023-04-15T14:25:52.043Z,2.76
2023-04-15T14:28:18.691Z,3.10
2023-04-15T14:30:45.349Z,3.11
2023-04-15T14:33:15.303Z,3.19
2023-04-15T14:35:41.961Z,3.05
2023-04-15T14:38:11.171Z,3.01
2023-04-15T14:40:38.939Z,3.18
2023-04-15T14:43:05.513Z,2.83
2023-04-15T14:45:32.208Z,2.67
2023-04-15T14:47:59.968Z,2.64
2023-04-15T14:50:26.650Z,2.48
2023-04-15T14:52:53.237Z,2.40
2023-04-15T14:55:20.478Z,2.36
2023-04-15T14:57:55.359Z,2.10
2023-04-15T15:00:22.005Z,2.10
2023-04-15T15:02:48.664Z,2.27
2023-04-15T15:05:16.126Z,2.19
2023-04-15T15:07:42.958Z,2.02
2023-04-15T15:10:10.370Z,1.96
2023-04-15T15:12:36.997Z,2.07
2023-04-15T15:15:12.141Z,2.00
2023-04-15T15:17:39.556Z,2.12
2023-04-15T15:20:06.777Z,2.11
2023-04-15T15:22:33.408Z,2.17
2023-04-15T15:25:02.071Z,2.19
2023-04-15T15:27:28.851Z,2.74
2023-04-15T15:29:56.590Z,2.73
2023-04-15T15:32:23.280Z,2.85
2023-04-15T15:34:49.957Z,2.72
2023-04-15T15:37:19.773Z,1.86
2023-04-15T15:39:46.508Z,2.36
2023-04-15T15:42:13.209Z,2.45
2023-04-15T15:44:41.435Z,2.47
2023-04-15T15:47:11.246Z,2.30
2023-04-15T15:49:37.923Z,2.37
2023-04-15T15:52:05.338Z,2.52
2023-04-15T15:54:32.168Z,2.38
2023-04-15T15:57:00.309Z,2.51
2023-04-15T15:59:27.091Z,2.42
2023-04-15T16:01:56.334Z,2.33
2023-04-15T16:04:23.408Z,2.72
2023-04-15T16:06:50.321Z,3.12
2023-04-15T16:09:17.701Z,2.88
2023-04-15T16:11:45.549Z,3.03
2023-04-15T16:14:13.964Z,3.08
2023-04-15T16:16:40.836Z,3.04
2023-04-15T16:19:07.463Z,3.08
2023-04-15T16:21:34.912Z,2.65
2023-04-15T16:24:02.105Z,2.68
2023-04-15T16:26:28.870Z,2.56
2023-04-15T16:28:55.729Z,2.62
2023-04-15T16:31:22.502Z,2.66
2023-04-15T16:33:49.119Z,2.39
2023-04-15T16:36:15.702Z,2.44
2023-04-15T16:38:42.388Z,2.64
2023-04-15T16:41:09.036Z,2.53
2023-04-15T16:43:35.677Z,2.37
2023-04-15T16:46:02.387Z,2.30
2023-04-15T16:48:29.064Z,2.39
2023-04-15T16:50:56.848Z,2.37
2023-04-15T16:53:23.502Z,2.19
2023-04-15T16:55:50.161Z,2.71
2023-04-15T16:58:16.805Z,2.80
2023-04-15T17:00:43.431Z,2.88
2023-04-15T17:03:10.541Z,2.79
2023-04-15T17:05:37.947Z,2.88
2023-04-15T17:08:05.723Z,3.10
2023-04-15T17:10:32.518Z,3.24
2023-04-15T17:12:59.260Z,3.08
2023-04-15T17:15:27.164Z,2.94
2023-04-15T17:17:54.266Z,2.93
2023-04-15T17:20:20.981Z,2.94
2023-04-15T17:22:48.869Z,3.58
2023-04-15T17:25:15.934Z,2.95
2023-04-15T17:27:42.550Z,3.20
2023-04-15T17:30:09.903Z,3.31
2023-04-15T17:32:37.146Z,3.19
2023-04-15T17:35:06.368Z,3.48
2023-04-15T17:37:34.017Z,3.58
2023-04-15T17:40:00.867Z,3.59
2023-04-15T17:42:27.573Z,3.74
2023-04-15T17:44:54.144Z,3.54
2023-04-15T17:47:20.771Z,3.81
2023-04-15T17:49:47.710Z,3.27
2023-04-15T17:52:14.372Z,3.33
2023-04-15T17:54:41.066Z,3.15
2023-04-15T17:57:07.743Z,3.03
2023-04-15T17:59:34.429Z,3.25
2023-04-15T18:02:01.064Z,3.20
2023-04-15T18:04:28.214Z,3.83
2023-04-15T18:06:55.005Z,3.69
2023-04-15T18:09:21.708Z,3.82
2023-04-15T18:11:48.983Z,4.17
2023-04-15T18:14:23.537Z,3.41
2023-04-15T18:16:57.651Z,3.45
2023-04-15T18:19:25.748Z,3.43
2023-04-15T18:21:52.433Z,2.85
2023-04-15T18:24:19.261Z,2.58
2023-04-15T18:26:48.769Z,2.90
2023-04-15T18:29:15.784Z,2.86
2023-04-15T18:31:43.132Z,2.45
2023-04-15T18:34:09.830Z,2.79
2023-04-15T18:36:36.532Z,2.79
2023-04-15T18:39:04.331Z,3.05
2023-04-15T18:41:31.193Z,2.90
2023-04-15T18:43:57.906Z,2.54
2023-04-15T18:46:24.618Z,2.57
2023-04-15T18:48:51.235Z,2.93
2023-04-15T18:51:17.778Z,3.11
2023-04-15T18:53:44.650Z,2.87
2023-04-15T18:56:11.469Z,2.44
2023-04-15T18:59:08.936Z,2.48
2023-04-15T19:01:24.698Z,2.60
2023-04-15T19:03:51.316Z,2.33
2023-04-15T19:06:17.909Z,2.41
2023-04-15T19:08:44.593Z,2.27
2023-04-15T19:11:11.370Z,2.36
2023-04-15T19:13:37.976Z,2.59
2023-04-15T19:16:04.883Z,2.38
2023-04-15T19:18:31.543Z,2.37
2023-04-15T19:20:58.243Z,2.42
2023-04-15T19:23:25.003Z,2.60
2023-04-15T19:25:51.618Z,2.57
2023-04-15T19:28:18.285Z,2.36
2023-04-15T19:30:44.891Z,2.59
2023-04-15T19:33:12.104Z,2.44
2023-04-15T19:35:40.960Z,2.90
2023-04-15T19:38:07.589Z,2.80
2023-04-15T19:40:34.206Z,2.49
2023-04-15T19:43:01.048Z,2.51
2023-04-15T19:45:27.703Z,2.61
2023-04-15T19:47:54.643Z,2.46
2023-04-15T19:50:25.832Z,2.53
2023-04-15T19:52:52.816Z,2.87
2023-04-15T19:55:19.746Z,2.72
2023-04-15T19:57:46.489Z,3.03
2023-04-15T20:00:13.377Z,3.06
2023-04-15T20:02:40.130Z,3.16
2023-04-15T20:05:09.813Z,3.29
2023-04-15T20:07:36.790Z,3.04
2023-04-15T20:10:03.627Z,2.83
2023-04-15T20:12:49.500Z,2.92
2023-04-15T20:15:19.415Z,3.24
2023-04-15T20:17:46.111Z,3.16
2023-04-15T20:20:12.780Z,3.13
2023-04-15T20:22:39.414Z,2.95
2023-04-15T20:25:06.438Z,3.02
2023-04-15T20:27:33.066Z,2.96
2023-04-15T20:29:59.748Z,2.80
2023-04-15T20:32:28.316Z,2.94
2023-04-15T20:34:55.143Z,3.18
2023-04-15T20:37:22.436Z,3.04
2023-04-15T20:39:49.173Z,3.12
2023-04-15T20:42:15.935Z,3.18
2023-04-15T20:44:42.588Z,3.29
2023-04-15T20:47:09.249Z,3.33
2023-04-15T20:49:37.619Z,3.51
2023-04-15T20:52:06.818Z,3.31
2023-04-15T20:54:33.694Z,3.45
2023-04-15T20:57:01.349Z,3.36
2023-04-15T20:59:28.558Z,3.31
2023-04-15T21:01:56.885Z,3.34
2023-04-15T21:04:24.474Z,3.26
2023-04-15T21:06:52.159Z,3.46
2023-04-15T21:09:18.994Z,3.37
2023-04-15T21:12:00.553Z,2.92
2023-04-15T21:14:28.153Z,3.29
2023-04-15T21:16:54.977Z,3.61
2023-04-15T21:19:21.575Z,3.28
2023-04-15T21:21:48.163Z,3.14
2023-04-15T21:24:14.780Z,3.21
2023-04-15T21:26:41.462Z,3.22
2023-04-15T21:29:10.403Z,3.03
2023-04-15T21:31:38.158Z,3.16
2023-04-15T21:34:05.421Z,3.10
2023-04-15T21:36:32.204Z,2.99
2023-04-15T21:38:58.814Z,2.63
2023-04-15T21:41:26.064Z,2.96
2023-04-15T21:43:53.434Z,2.76
2023-04-15T21:46:23.146Z,2.79
2023-04-15T21:48:50.748Z,2.68
2023-04-15T21:51:17.503Z,2.51
2023-04-15T21:53:44.131Z,2.77
2023-04-15T21:56:10.960Z,2.84
2023-04-15T21:58:37.668Z,2.49
2023-04-15T22:01:04.779Z,2.87
2023-04-15T22:03:33.982Z,2.79
2023-04-15T22:06:02.249Z,2.83
2023-04-15T22:08:29.221Z,2.73
2023-04-15T22:10:56.193Z,2.89
2023-04-15T22:13:22.782Z,2.92
2023-04-15T22:15:49.407Z,2.63
2023-04-15T22:18:16.129Z,3.02
2023-04-15T22:20:42.767Z,2.93
2023-04-15T22:23:09.872Z,3.03
2023-04-15T22:25:37.708Z,3.10
2023-04-15T22:28:07.860Z,2.90
2023-04-15T22:30:41.897Z,3.04
2023-04-15T22:33:09.818Z,3.07
2023-04-15T22:35:37.445Z,3.22
2023-04-15T22:38:05.160Z,3.29
2023-04-15T22:40:31.852Z,3.38
2023-04-15T22:42:59.157Z,3.31
2023-04-15T22:45:25.774Z,3.47
2023-04-15T22:47:52.455Z,3.77
2023-04-15T22:50:19.391Z,4.53
2023-04-15T22:52:47.418Z,5.37
2023-04-15T22:55:14.568Z,5.73
2023-04-15T22:57:41.299Z,5.66
2023-04-15T23:00:08.934Z,5.33
2023-04-15T23:02:35.620Z,5.05
2023-04-15T23:05:02.973Z,4.50
2023-04-15T23:07:32.794Z,4.21
2023-04-15T23:10:01.154Z,3.92
2023-04-15T23:12:27.996Z,4.20
2023-04-15T23:14:54.547Z,4.01
2023-04-15T23:17:21.274Z,4.04
2023-04-15T23:19:47.931Z,3.87
2023-04-15T23:22:14.617Z,4.01
2023-04-15T23:24:41.191Z,3.65
2023-04-15T23:27:07.769Z,4.13
2023-04-15T23:29:34.303Z,3.96
2023-04-15T23:32:00.991Z,4.14
2023-04-15T23:34:27.628Z,4.31
2023-04-15T23:36:54.228Z,4.27
2023-04-15T23:39:21.110Z,4.33
2023-04-15T23:41:47.942Z,4.02
2023-04-15T23:44:14.605Z,4.03
2023-04-15T23:46:41.251Z,4.52
2023-04-15T23:49:08.057Z,4.37
2023-04-15T23:51:34.729Z,4.32
2023-04-15T23:54:01.302Z,4.23
2023-04-15T23:56:27.898Z,4.36
2023-04-15T23:58:54.603Z,4.00
